الصفحة الرئيسية
METAR-TAF:

METAR-TAF

مطار :

ريغا, لاتفيا

دائرة عرض: 56-55N, خط طول: 023-58E, ارتفاع: 10 متر

مراقبة الطقس الحالي

تاريخ ووقت الإصدار 36 دقيقة قبل الساعة 07:50UTC
ريح 8 عقدة من الشرق/الشمال الشرقي
درجة الحرارة 2°درجة مئوية
الرطوبة 64%
ضغط 1025 hPa
الرؤية 10 كم أو أكثر
الغيوم لا تقل 1500 م ولا وجود لمزنة ركامية السحاب الأسود

METAR: EVRA 050750Z 07008KT CAVOK 02/M04 Q1025 NOSIG

زمن: 10:26 (08:26 UTC)

توقعات

تاريخ ووقت الإصدار 3ساعات و 25 دقيقة قبل الساعة 05:01UTC
التوقعات صالحة من05 الساعة 06 UTC إلى 06 الساعة 06 UTC
ريح 7 عقدة من الشمال الشرقي
الرؤية 10 كم أو أكثر
الغيوم لا تقل 1500 م ولا وجود لمزنة ركامية السحاب الأسود

TAF: EVRA 050501Z 0506/0606 05007KT CAVOK

أرصاد الطقس والتوقعات من أكثر من 4000 مطار (تقارير الطقس للمطار METAR والتنبؤ بالطقس بالمطارTAF).

المحطات المتاحة هي النقط الصفراء والحمراء على الخريطة.

حرك المؤشر فوق النقطة لمعرفة اسم المحطة.

ثم انقر لمعرفة أرصاد وتوقعات الطقس.

لتغيير الخارطة: اضغط على الأزرار الخضراء مع رمز الصليب الأسود للتكبير. على الزر الأخضر مع شرطة للتصغير، أو على الأسهم الخضراء للخرائط المجاورة.


METAR-TAF: